Time;durP1;ratioP1;P1;durP2;ratioP2;P2;SDS_P1;SDS_P2;PMS_P1;PMS_P2;Temp;Humidity;BMP_temperature;BMP_pressure;BME280_temperature;BME280_humidity;BME280_pressure;Samples;Min_cycle;Max_cycle;Signal;HPM_P1;HPM_P2
2023/06/20 00:00:55;;;;;;;0.70;0.70;;;;;;;16.63;91.08;96975.09;4927714;29;20052;-61
2023/06/20 00:03:22;;;;;;;0.70;0.70;;;;;;;16.54;92.03;96976.34;4942202;29;20511;-61
2023/06/20 00:05:49;;;;;;;0.70;0.70;;;;;;;16.57;91.90;96980.31;4958278;28;20056;-61
2023/06/20 00:08:15;;;;;;;0.60;0.60;;;;;;;16.62;91.34;96971.47;4944055;29;20554;-61
2023/06/20 00:10:42;;;;;;;0.70;0.70;;;;;;;16.49;90.88;96932.03;4946907;28;20416;-61
2023/06/20 00:13:09;;;;;;;0.70;0.70;;;;;;;16.64;91.62;96969.84;4947129;28;20062;-62
2023/06/20 00:15:35;;;;;;;0.60;0.60;;;;;;;16.65;91.97;96959.47;4946787;28;20593;-61
2023/06/20 00:18:02;;;;;;;0.73;0.73;;;;;;;16.27;90.92;96921.38;4946475;28;20155;-61
2023/06/20 00:20:30;;;;;;;0.60;0.60;;;;;;;16.43;92.90;96958.81;4946936;28;20059;-62
2023/06/20 00:22:57;;;;;;;0.70;0.70;;;;;;;16.53;91.97;96963.53;4946381;28;20051;-61
2023/06/20 00:25:23;;;;;;;0.70;0.70;;;;;;;16.40;91.29;96970.81;4946862;28;20081;-61
2023/06/20 00:27:50;;;;;;;0.70;0.70;;;;;;;16.03;89.82;96909.16;4946322;28;20627;-61
2023/06/20 00:30:17;;;;;;;0.70;0.70;;;;;;;16.19;89.05;96965.34;4946624;28;20512;-61
2023/06/20 00:32:44;;;;;;;0.70;0.70;;;;;;;16.07;88.42;96951.88;4946099;28;20090;-60
2023/06/20 00:35:11;;;;;;;0.60;0.60;;;;;;;15.89;88.26;96939.19;4946415;28;20051;-61
2023/06/20 00:37:38;;;;;;;0.70;0.70;;;;;;;16.03;88.38;96962.25;4946162;28;20429;-61
2023/06/20 00:40:09;;;;;;;0.60;0.60;;;;;;;15.93;88.91;96951.94;4946136;28;20133;-61
2023/06/20 00:42:35;;;;;;;0.70;0.70;;;;;;;15.94;89.84;96936.78;4960040;28;20133;-61
2023/06/20 00:45:03;;;;;;;0.70;0.70;;;;;;;16.07;88.63;96951.88;4946077;28;20051;-63
2023/06/20 00:47:30;;;;;;;0.60;0.60;;;;;;;16.03;88.60;96950.28;4935736;28;20055;-61
2023/06/20 00:49:57;;;;;;;0.70;0.70;;;;;;;16.02;89.05;96959.88;4944783;29;20082;-61
2023/06/20 00:52:25;;;;;;;0.60;0.60;;;;;;;15.99;89.77;96961.50;4945847;28;20055;-61
2023/06/20 00:54:51;;;;;;;0.70;0.70;;;;;;;16.07;91.09;96951.88;4960795;28;20054;-61
2023/06/20 00:57:20;;;;;;;0.70;0.70;;;;;;;16.15;92.50;96953.41;4960483;28;20581;-60
2023/06/20 00:59:49;;;;;;;0.60;0.60;;;;;;;15.74;95.08;96952.44;4946328;28;20106;-61
2023/06/20 01:02:16;;;;;;;0.70;0.70;;;;;;;15.79;95.83;96938.03;4946225;28;20439;-62
2023/06/20 01:04:45;;;;;;;0.60;0.60;;;;;;;15.99;94.44;96950.31;4946204;28;20051;-61
2023/06/20 01:07:26;;;;;;;0.60;0.60;;;;;;;16.01;93.56;96947.88;4945865;28;20074;-61
2023/06/20 01:10:15;;;;;;;0.65;0.65;;;;;;;15.94;93.84;96959.13;4944508;29;20070;-61
2023/06/20 01:12:53;;;;;;;0.70;0.70;;;;;;;15.91;95.23;96956.34;4945611;28;20055;-61
2023/06/20 01:15:29;;;;;;;0.70;0.70;;;;;;;16.05;94.06;96948.69;4960529;28;20062;-60
2023/06/20 01:18:04;;;;;;;0.65;0.65;;;;;;;16.13;93.30;96955.81;4945785;28;20503;-61
2023/06/20 01:20:36;;;;;;;0.70;0.70;;;;;;;15.65;93.30;96882.25;4945950;28;20054;-61
2023/06/20 01:23:11;;;;;;;0.70;0.70;;;;;;;16.03;94.74;96950.28;4945729;28;20061;-61
2023/06/20 01:25:59;;;;;;;0.70;0.70;;;;;;;16.12;93.71;96954.22;4945906;28;20078;-62
2023/06/20 01:29:04;;;;;;;0.70;0.70;;;;;;;15.86;94.66;96921.25;4946067;28;20059;-63
2023/06/20 01:31:37;;;;;;;0.70;0.70;;;;;;;16.07;95.31;96940.69;4953054;28;20446;-61
2023/06/20 01:34:14;;;;;;;0.70;0.70;;;;;;;16.07;93.78;96946.28;4945569;28;20055;-61
2023/06/20 01:36:46;;;;;;;0.70;0.70;;;;;;;16.05;93.47;96953.47;4945561;28;20055;-61
2023/06/20 01:39:22;;;;;;;0.70;0.70;;;;;;;15.84;93.83;96920.84;4946074;28;20514;-62
2023/06/20 01:41:50;;;;;;;0.70;0.70;;;;;;;15.59;91.81;96897.84;4946022;28;20062;-61
2023/06/20 01:44:19;;;;;;;0.70;0.70;;;;;;;15.98;91.74;96950.72;4945913;28;20058;-62
2023/06/20 01:46:49;;;;;;;0.70;0.70;;;;;;;15.84;93.43;96948.78;4945658;28;20055;-62
2023/06/20 01:49:17;;;;;;;0.70;0.70;;;;;;;15.72;94.27;96946.47;4960148;28;20055;-61
2023/06/20 01:51:44;;;;;;;0.70;0.70;;;;;;;15.90;94.24;96951.97;4960162;28;20143;-63
2023/06/20 01:54:11;;;;;;;0.70;0.70;;;;;;;15.41;94.75;96857.28;4946820;28;20078;-61
2023/06/20 01:56:39;;;;;;;0.60;0.60;;;;;;;15.43;94.43;96871.63;4949225;28;20679;-61
2023/06/20 01:59:07;;;;;;;0.60;0.60;;;;;;;15.91;94.38;96947.97;4949759;28;20134;-61
2023/06/20 02:01:34;;;;;;;0.70;0.70;;;;;;;15.86;94.25;96946.38;4949192;28;20071;-62
2023/06/20 02:04:02;;;;;;;0.70;0.70;;;;;;;15.49;93.50;96907.06;4949351;28;20058;-61
2023/06/20 02:06:30;;;;;;;0.60;0.60;;;;;;;15.63;94.95;96946.13;4948979;28;20051;-61
2023/06/20 02:08:59;;;;;;;0.60;0.60;;;;;;;15.68;95.49;96940.09;4949513;28;20051;-62
2023/06/20 02:11:27;;;;;;;0.70;0.70;;;;;;;15.64;95.03;96950.50;4948583;28;20082;-61
2023/06/20 02:13:55;;;;;;;0.60;0.60;;;;;;;15.43;94.82;96914.28;4930145;28;20171;-61
2023/06/20 02:16:24;;;;;;;0.70;0.70;;;;;;;15.04;95.94;96868.94;4930125;29;20150;-61
2023/06/20 02:18:51;;;;;;;0.60;0.60;;;;;;;15.36;97.81;96950.56;4930038;29;20051;-63
2023/06/20 02:21:22;;;;;;;0.65;0.65;;;;;;;15.44;97.00;96949.38;4960254;28;20047;-61
2023/06/20 02:23:50;;;;;;;0.70;0.70;;;;;;;15.44;96.26;96957.75;4960147;28;20086;-61
2023/06/20 02:26:19;;;;;;;0.60;0.60;;;;;;;15.12;96.48;96917.94;4929414;29;20043;-61
2023/06/20 02:28:48;;;;;;;0.60;0.60;;;;;;;15.18;97.29;96961.78;4929560;29;20387;-62
2023/06/20 02:31:19;;;;;;;0.60;0.60;;;;;;;14.68;96.40;96854.31;4929407;29;20063;-61
2023/06/20 02:33:50;;;;;;;0.63;0.63;;;;;;;15.26;96.62;96956.97;4929698;29;20085;-61
2023/06/20 02:36:20;;;;;;;0.68;0.68;;;;;;;15.24;97.49;96962.16;4929694;29;20139;-62
2023/06/20 02:38:47;;;;;;;0.70;0.70;;;;;;;15.33;95.81;96961.75;4929615;29;20066;-62
2023/06/20 02:41:14;;;;;;;0.60;0.60;;;;;;;15.32;96.79;96966.50;4929344;29;20048;-62
2023/06/20 02:43:41;;;;;;;0.60;0.60;;;;;;;15.22;96.75;96927.47;4959776;28;20066;-62
2023/06/20 02:46:32;;;;;;;0.60;0.60;;;;;;;15.42;97.35;96971.31;4929589;29;20063;-62
2023/06/20 02:49:15;;;;;;;0.70;0.70;;;;;;;15.41;95.21;96982.88;4929962;29;20126;-63
2023/06/20 02:52:00;;;;;;;0.60;0.60;;;;;;;15.33;96.50;96973.72;4929494;29;20073;-61
2023/06/20 02:54:37;;;;;;;0.60;0.60;;;;;;;15.39;96.18;96966.53;4929326;29;20055;-61
2023/06/20 02:57:08;;;;;;;0.70;0.70;;;;;;;15.49;94.90;96979.66;4928887;29;20825;-62
2023/06/20 02:59:37;;;;;;;0.70;0.70;;;;;;;15.52;95.68;96976.06;4929444;29;20086;-61
2023/06/20 03:02:07;;;;;;;0.60;0.60;;;;;;;15.63;95.56;96987.19;4959677;28;20404;-62
2023/06/20 03:04:34;;;;;;;0.70;0.70;;;;;;;15.59;95.12;97036.66;4929196;29;20130;-62
2023/06/20 03:07:02;;;;;;;0.63;0.63;;;;;;;15.66;95.24;96984.41;4945833;28;20066;-61
2023/06/20 03:09:33;;;;;;;0.60;0.60;;;;;;;15.65;96.41;96982.00;4948732;28;20047;-61
2023/06/20 03:12:00;;;;;;;0.70;0.70;;;;;;;15.74;95.79;96997.13;4948174;28;20485;-62
2023/06/20 03:14:26;;;;;;;0.70;0.70;;;;;;;15.78;95.03;96989.53;4948144;28;20082;-62
2023/06/20 03:16:53;;;;;;;0.60;0.60;;;;;;;15.90;93.15;96996.66;4947293;28;20043;-63
2023/06/20 03:19:20;;;;;;;0.70;0.70;;;;;;;15.88;92.50;96988.69;4948195;28;20051;-61
2023/06/20 03:21:46;;;;;;;0.70;0.70;;;;;;;16.03;92.75;96993.00;4948065;28;20057;-63
2023/06/20 03:24:13;;;;;;;0.70;0.70;;;;;;;16.04;93.10;96991.81;4948242;28;20061;-61
2023/06/20 03:26:40;;;;;;;0.70;0.70;;;;;;;15.97;92.11;96952.72;4948382;28;20062;-62
2023/06/20 03:29:07;;;;;;;0.70;0.70;;;;;;;16.25;90.21;97002.03;4948394;28;20442;-61
2023/06/20 03:31:34;;;;;;;0.80;0.80;;;;;;;16.32;90.88;96991.63;4947431;28;20484;-62
2023/06/20 03:34:00;;;;;;;0.73;0.73;;;;;;;15.87;90.16;96896.91;4946976;28;20063;-61
2023/06/20 03:36:27;;;;;;;0.70;0.70;;;;;;;16.64;89.63;96992.22;4961914;28;20061;-62
2023/06/20 03:38:54;;;;;;;0.63;0.63;;;;;;;16.84;89.14;96994.47;4947969;28;20553;-61
2023/06/20 03:41:21;;;;;;;0.70;0.70;;;;;;;16.84;87.76;96980.50;4947511;28;20055;-62
2023/06/20 03:43:47;;;;;;;0.70;0.70;;;;;;;17.16;87.16;97006.19;4947528;28;20419;-63
2023/06/20 03:46:14;;;;;;;0.70;0.70;;;;;;;17.02;86.04;96972.75;4946975;28;20446;-62
2023/06/20 03:48:41;;;;;;;0.70;0.70;;;;;;;17.17;86.20;96962.97;4947364;28;20059;-62
2023/06/20 03:51:07;;;;;;;0.80;0.80;;;;;;;17.54;86.11;96994.63;4947368;28;20055;-61
2023/06/20 03:53:34;;;;;;;0.82;0.82;;;;;;;17.73;84.60;97001.63;4947473;28;20357;-61
2023/06/20 03:56:02;;;;;;;0.80;0.80;;;;;;;17.90;84.02;97006.22;4946800;28;20582;-63
2023/06/20 03:58:29;;;;;;;0.70;0.70;;;;;;;17.63;83.96;96952.91;4947271;28;20106;-62
2023/06/20 04:00:56;;;;;;;0.80;0.80;;;;;;;18.04;84.13;97006.03;4947213;28;20058;-61
2023/06/20 04:03:23;;;;;;;0.70;0.70;;;;;;;18.29;82.90;97003.69;4947326;28;20799;-61
2023/06/20 04:05:51;;;;;;;0.80;0.80;;;;;;;18.39;81.68;96999.19;4947448;28;20430;-61
2023/06/20 04:08:18;;;;;;;0.80;0.80;;;;;;;18.35;81.30;97009.66;4946899;28;20514;-61
2023/06/20 04:10:44;;;;;;;0.80;0.80;;;;;;;18.19;82.68;96979.41;4946699;28;20051;-61
2023/06/20 04:13:11;;;;;;;0.88;0.88;;;;;;;18.53;82.09;96998.97;4947115;28;20055;-62
2023/06/20 04:15:37;;;;;;;0.80;0.80;;;;;;;18.77;80.68;96998.63;4947076;28;20047;-61
2023/06/20 04:18:04;;;;;;;0.80;0.80;;;;;;;18.88;79.97;97002.03;4945773;28;20059;-61
2023/06/20 04:20:31;;;;;;;0.90;0.90;;;;;;;18.96;79.33;97006.31;4946720;28;20066;-61
2023/06/20 04:22:58;;;;;;;0.80;0.80;;;;;;;18.74;79.36;96937.72;4961764;28;20059;-61
2023/06/20 04:25:24;;;;;;;0.80;0.80;;;;;;;19.33;77.80;96989.25;4946928;28;20404;-62
2023/06/20 04:27:55;;;;;;;0.80;0.80;;;;;;;19.50;77.28;97013.44;4946634;28;20062;-62
2023/06/20 04:30:23;;;;;;;0.90;0.90;;;;;;;19.38;77.88;96991.56;4946494;28;20545;-60
2023/06/20 04:32:53;;;;;;;0.80;0.80;;;;;;;19.74;77.04;97004.94;4946106;28;20581;-61
2023/06/20 04:35:20;;;;;;;0.80;0.80;;;;;;;19.84;76.22;97003.97;4946544;28;20098;-61
2023/06/20 04:37:51;;;;;;;0.90;0.90;;;;;;;19.77;76.46;96970.34;4946526;28;20432;-61
2023/06/20 04:40:18;;;;;;;0.90;0.90;;;;;;;19.87;75.10;96970.13;4946629;28;20161;-62
2023/06/20 04:42:47;;;;;;;0.90;0.90;;;;;;;20.39;74.74;97001.22;4946492;29;20135;-61
2023/06/20 04:45:15;;;;;;;0.82;0.82;;;;;;;20.36;74.48;97004.91;4961030;28;20056;-62
2023/06/20 04:47:42;;;;;;;1.00;1.00;;;;;;;20.41;72.91;97010.78;4946101;28;20051;-62
2023/06/20 04:50:09;;;;;;;1.00;1.00;;;;;;;20.30;73.35;96998.97;4946298;28;20079;-61
2023/06/20 04:52:37;;;;;;;0.90;0.90;;;;;;;20.38;75.11;97010.88;4944336;28;20058;-61
2023/06/20 04:55:04;;;;;;;0.98;0.98;;;;;;;19.61;78.08;97001.19;4959965;28;20055;-62
2023/06/20 04:57:32;;;;;;;0.90;0.90;;;;;;;20.04;78.44;97013.19;4944862;28;20178;-60
2023/06/20 04:59:59;;;;;;;0.90;0.90;;;;;;;20.04;79.09;97013.97;4943869;29;20059;-61
2023/06/20 05:02:26;;;;;;;0.90;0.90;;;;;;;19.94;80.40;97019.81;4960195;28;20055;-61
2023/06/20 05:04:53;;;;;;;0.90;0.90;;;;;;;20.03;79.92;97017.22;4960744;28;20243;-61
2023/06/20 05:07:21;;;;;;;0.90;0.90;;;;;;;19.74;80.00;97021.81;4946086;28;20074;-61
2023/06/20 05:09:49;;;;;;;0.82;0.82;;;;;;;19.96;75.79;97023.00;4946500;28;20043;-61
2023/06/20 05:12:16;;;;;;;0.90;0.90;;;;;;;19.74;74.28;96988.09;4946047;28;20051;-61
2023/06/20 05:14:43;;;;;;;0.90;0.90;;;;;;;20.21;74.63;97031.72;4945919;28;20055;-62
2023/06/20 05:17:10;;;;;;;0.85;0.85;;;;;;;20.37;74.36;97026.16;4946100;28;20118;-62
2023/06/20 05:19:37;;;;;;;0.90;0.90;;;;;;;20.24;75.86;97028.06;4946100;28;20125;-63
2023/06/20 05:22:03;;;;;;;0.80;0.80;;;;;;;20.18;76.49;96994.03;4945686;28;20051;-61
2023/06/20 05:24:30;;;;;;;0.80;0.80;;;;;;;20.71;76.14;97029.41;4960034;28;20578;-61
2023/06/20 05:26:57;;;;;;;0.90;0.90;;;;;;;20.47;75.58;96954.81;4943985;28;20129;-61
2023/06/20 05:29:23;;;;;;;0.80;0.80;;;;;;;20.87;76.20;97021.00;4929287;28;20059;-63
2023/06/20 05:31:50;;;;;;;0.90;0.90;;;;;;;21.02;75.84;97021.47;4941919;28;20070;-63
2023/06/20 05:34:17;;;;;;;0.95;0.95;;;;;;;21.15;75.87;97025.19;4943395;28;20524;-63
2023/06/20 05:36:46;;;;;;;0.90;0.90;;;;;;;20.76;75.62;96964.13;4952576;28;20131;-62
2023/06/20 05:39:13;;;;;;;0.90;0.90;;;;;;;21.06;74.62;96954.56;4958517;28;20532;-64
2023/06/20 05:41:42;;;;;;;0.90;0.90;;;;;;;21.66;74.37;97010.94;4934733;29;20133;-61
2023/06/20 05:44:08;;;;;;;0.90;0.90;;;;;;;21.90;73.38;97009.50;4974694;28;20109;-60
2023/06/20 05:46:35;;;;;;;0.98;0.98;;;;;;;21.86;72.99;96991.88;4936462;28;20058;-62
2023/06/20 05:49:03;;;;;;;0.90;0.90;;;;;;;21.81;72.19;96955.78;4925850;29;20060;-63
2023/06/20 05:51:30;;;;;;;0.85;0.85;;;;;;;22.39;72.07;97019.38;4936729;28;20046;-61
2023/06/20 05:53:57;;;;;;;1.00;1.00;;;;;;;21.52;69.89;96946.50;4964178;28;20124;-63
2023/06/20 05:56:24;;;;;;;1.00;1.00;;;;;;;22.35;69.92;96973.50;4960184;28;20542;-60
2023/06/20 05:58:51;;;;;;;0.90;0.90;;;;;;;23.04;68.92;97019.00;4958849;28;20059;-61
2023/06/20 06:01:18;;;;;;;1.00;1.00;;;;;;;23.20;67.30;96987.78;4954611;28;20582;-62
2023/06/20 06:03:47;;;;;;;1.00;1.00;;;;;;;23.71;65.73;97023.97;4985862;28;20430;-62
2023/06/20 06:06:15;;;;;;;0.90;0.90;;;;;;;23.63;66.37;97007.72;4964288;28;20062;-61
2023/06/20 06:08:42;;;;;;;1.10;1.10;;;;;;;21.69;65.25;96716.00;4962762;28;20106;-60
2023/06/20 06:11:09;;;;;;;1.00;1.00;;;;;;;23.61;65.22;97030.03;4968408;28;20443;-62
2023/06/20 06:13:38;;;;;;;0.90;0.90;;;;;;;23.62;64.86;96975.81;4947672;28;20130;-63
2023/06/20 06:16:05;;;;;;;1.00;1.00;;;;;;;23.95;63.96;96976.25;4961975;28;20055;-64
2023/06/20 06:18:32;;;;;;;1.08;1.08;;;;;;;24.00;62.83;96927.56;4944466;28;20063;-63
2023/06/20 06:20:59;;;;;;;1.15;1.15;;;;;;;24.44;62.36;96968.72;4945821;28;20062;-61
2023/06/20 06:23:27;;;;;;;1.25;1.25;;;;;;;24.72;60.45;96973.31;4948851;28;20522;-60
2023/06/20 06:25:53;;;;;;;1.13;1.13;;;;;;;24.95;61.42;96991.84;4946401;28;20051;-65
2023/06/20 06:28:22;;;;;;;1.10;1.10;;;;;;;25.22;61.52;96983.44;4990369;28;20485;-62
2023/06/20 06:30:48;;;;;;;1.23;1.23;;;;;;;25.38;60.62;96985.22;4963684;28;20490;-64
2023/06/20 06:33:15;;;;;;;1.10;1.10;;;;;;;25.68;59.70;96992.84;4958649;28;20055;-61
2023/06/20 06:35:42;;;;;;;1.13;1.13;;;;;;;25.86;57.80;96985.13;4955102;28;20055;-62
2023/06/20 06:38:09;;;;;;;1.30;1.30;;;;;;;26.10;56.59;96985.31;4958876;28;20081;-63
2023/06/20 06:40:36;;;;;;;1.02;1.02;;;;;;;26.52;54.94;96967.09;4962478;28;20055;-61
2023/06/20 06:43:03;;;;;;;1.20;1.20;;;;;;;26.88;54.42;96962.56;4963600;28;20062;-62
2023/06/20 06:45:30;;;;;;;1.17;1.17;;;;;;;26.56;53.14;96830.50;4965853;28;20050;-62
2023/06/20 06:47:56;;;;;;;1.35;1.35;;;;;;;27.24;52.01;96880.69;4967171;28;20077;-59
2023/06/20 06:50:23;;;;;;;1.52;1.52;;;;;;;28.33;49.69;96970.97;4994629;28;20082;-61
2023/06/20 06:52:50;;;;;;;1.50;1.50;;;;;;;28.56;48.73;96961.56;4963855;28;20437;-58
2023/06/20 06:55:17;;;;;;;1.63;1.63;;;;;;;29.08;47.63;96969.22;4967622;28;20182;-62
2023/06/20 06:57:44;;;;;;;1.50;1.50;;;;;;;28.87;47.10;96971.19;4978584;28;20271;-63
2023/06/20 07:00:14;;;;;;;1.60;1.60;;;;;;;29.06;46.50;96986.00;4964418;28;20047;-62
2023/06/20 07:02:43;;;;;;;1.50;1.50;;;;;;;28.98;45.77;96953.44;4954185;28;20054;-63
2023/06/20 07:05:10;;;;;;;1.70;1.70;;;;;;;29.06;45.55;96946.88;4963149;28;20051;-59
2023/06/20 07:07:37;;;;;;;1.60;1.60;;;;;;;28.44;46.49;96908.47;4980092;28;20330;-63
2023/06/20 07:10:05;;;;;;;1.80;1.80;;;;;;;29.10;46.65;96969.50;4959379;28;20059;-64
2023/06/20 07:12:31;;;;;;;1.45;1.45;;;;;;;27.90;48.57;96972.47;4966897;28;20515;-63
2023/06/20 07:14:58;;;;;;;1.40;1.40;;;;;;;28.60;49.24;96960.09;4961118;28;20522;-63
2023/06/20 07:17:25;;;;;;;1.58;1.58;;;;;;;28.75;47.07;96974.34;4961920;28;20047;-63
2023/06/20 07:19:53;;;;;;;1.60;1.60;;;;;;;28.33;47.13;96974.59;4961206;28;20524;-63
2023/06/20 07:22:20;;;;;;;1.65;1.65;;;;;;;28.35;47.34;96969.19;4997333;28;20054;-61
2023/06/20 07:24:48;;;;;;;1.55;1.55;;;;;;;28.32;47.79;96975.09;4963339;28;20062;-61
2023/06/20 07:27:19;;;;;;;1.70;1.70;;;;;;;28.54;46.14;96962.06;4931384;28;20047;-65
2023/06/20 07:29:46;;;;;;;1.40;1.40;;;;;;;28.86;46.51;96963.13;4963881;28;20395;-65
2023/06/20 07:32:14;;;;;;;1.50;1.50;;;;;;;29.07;45.52;96979.06;4967042;28;20466;-67
2023/06/20 07:34:41;;;;;;;1.67;1.67;;;;;;;29.21;45.76;96983.94;4966186;28;20523;-62
2023/06/20 07:37:08;;;;;;;1.92;1.92;;;;;;;29.07;45.23;96914.22;4965292;28;20055;-62
2023/06/20 07:39:39;;;;;;;1.60;1.60;;;;;;;29.24;44.89;96965.84;4953812;28;20434;-63
2023/06/20 07:42:06;;;;;;;1.80;1.80;;;;;;;29.23;44.89;96987.06;4995317;28;20050;-63
2023/06/20 07:44:33;;;;;;;1.80;1.80;;;;;;;28.34;46.13;96899.22;4966846;28;20475;-64
2023/06/20 07:46:59;;;;;;;1.42;1.42;;;;;;;28.27;46.91;96944.41;4966914;28;20154;-62
2023/06/20 07:49:28;;;;;;;1.70;1.70;;;;;;;28.23;47.22;96949.53;4966528;28;20054;-62
2023/06/20 07:51:54;;;;;;;1.70;1.70;;;;;;;28.51;47.07;96960.19;4986521;28;20050;-62
2023/06/20 07:54:21;;;;;;;1.70;1.70;;;;;;;27.58;47.26;96786.25;4958584;28;20532;-63
2023/06/20 07:56:48;;;;;;;1.63;1.63;;;;;;;28.95;46.52;96972.34;4947751;28;20524;-60
2023/06/20 07:59:15;;;;;;;1.67;1.67;;;;;;;28.73;46.72;96943.47;4957188;28;20051;-61
2023/06/20 08:01:41;;;;;;;1.65;1.65;;;;;;;29.37;48.47;96972.00;4955354;28;20058;-64
2023/06/20 08:04:08;;;;;;;1.83;1.83;;;;;;;29.35;47.07;96951.72;4956419;28;20485;-61
2023/06/20 08:06:35;;;;;;;1.63;1.63;;;;;;;29.26;47.26;96986.09;4957154;28;20047;-63
2023/06/20 08:09:02;;;;;;;1.50;1.50;;;;;;;29.46;46.33;96975.53;4965581;28;20069;-63
2023/06/20 08:11:29;;;;;;;1.55;1.55;;;;;;;29.76;45.81;96976.22;4966291;28;20313;-61
2023/06/20 08:13:56;;;;;;;1.50;1.50;;;;;;;28.65;44.58;96759.03;4949082;28;20051;-64
2023/06/20 08:16:23;;;;;;;1.60;1.60;;;;;;;29.77;45.57;96952.06;4943228;28;20052;-62
2023/06/20 08:18:50;;;;;;;1.88;1.88;;;;;;;29.33;46.12;96911.47;4937796;28;20090;-67
2023/06/20 08:21:16;;;;;;;2.00;2.00;;;;;;;29.26;46.30;96883.38;4947027;28;20047;-63
2023/06/20 08:23:45;;;;;;;1.77;1.77;;;;;;;29.72;46.34;96972.75;4942604;28;20138;-63
2023/06/20 08:26:12;;;;;;;1.73;1.73;;;;;;;29.75;46.48;96983.19;4942583;29;20442;-60
2023/06/20 08:28:39;;;;;;;1.60;1.60;;;;;;;28.70;47.51;96977.88;4962098;28;20122;-64
2023/06/20 08:31:06;;;;;;;1.85;1.85;;;;;;;28.67;45.80;96939.75;4963339;28;20050;-63
2023/06/20 08:33:33;;;;;;;1.70;1.70;;;;;;;29.44;44.79;96974.44;4992238;28;20102;-59
2023/06/20 08:36:01;;;;;;;1.75;1.75;;;;;;;28.88;44.03;96852.19;4945577;28;20624;-63
2023/06/20 08:38:28;;;;;;;1.58;1.58;;;;;;;28.93;41.83;96926.41;4973745;28;20137;-59
2023/06/20 08:40:55;;;;;;;1.60;1.60;;;;;;;28.82;42.04;96973.94;4965113;28;20050;-64
2023/06/20 08:43:22;;;;;;;1.80;1.80;;;;;;;29.09;42.37;96896.59;4956027;28;20051;-65
2023/06/20 08:45:48;;;;;;;1.63;1.63;;;;;;;29.48;40.55;96906.50;4943701;28;20139;-68
2023/06/20 08:48:15;;;;;;;1.63;1.63;;;;;;;30.13;40.42;96965.75;4948345;28;20050;-64
2023/06/20 08:50:47;;;;;;;1.88;1.88;;;;;;;30.28;40.51;96969.34;4951888;28;20277;-60
2023/06/20 08:53:15;;;;;;;1.83;1.83;;;;;;;29.47;41.84;96974.22;4948515;28;20231;-61
2023/06/20 08:55:43;;;;;;;1.58;1.58;;;;;;;28.17;43.55;96929.47;4959209;28;20059;-62
2023/06/20 08:58:10;;;;;;;1.70;1.70;;;;;;;28.52;45.05;96964.59;4945474;28;20062;-61
2023/06/20 09:00:40;;;;;;;1.80;1.80;;;;;;;28.72;39.52;96938.25;4944366;28;20131;-60
2023/06/20 09:03:07;;;;;;;1.65;1.65;;;;;;;29.15;37.46;96971.66;4950358;28;20050;-65
2023/06/20 09:05:42;;;;;;;1.88;1.88;;;;;;;29.37;36.90;96972.00;4995130;28;20050;-60
2023/06/20 09:08:15;;;;;;;1.60;1.60;;;;;;;29.53;36.82;96966.50;4975929;28;20411;-61
2023/06/20 09:10:44;;;;;;;1.73;1.73;;;;;;;28.99;35.80;96909.41;4950932;28;20057;-66
2023/06/20 09:13:12;;;;;;;1.77;1.77;;;;;;;29.07;35.45;96930.56;4926539;29;20051;-62
2023/06/20 09:15:41;;;;;;;1.60;1.60;;;;;;;29.08;36.71;96907.25;4943142;28;20324;-60
2023/06/20 09:18:13;;;;;;;1.75;1.75;;;;;;;29.36;37.66;96916.19;4977903;28;20201;-65
2023/06/20 09:20:40;;;;;;;1.60;1.60;;;;;;;29.89;35.26;96959.50;4954050;28;20490;-64
2023/06/20 09:23:07;;;;;;;1.85;1.85;;;;;;;29.89;36.51;96982.34;4957236;28;20050;-62
2023/06/20 09:25:36;;;;;;;1.83;1.83;;;;;;;29.96;34.70;96958.25;4956472;28;20146;-63
2023/06/20 09:28:12;;;;;;;1.80;1.80;;;;;;;29.97;34.44;96926.31;4950648;28;20061;-68
2023/06/20 09:30:39;;;;;;;1.90;1.90;;;;;;;30.19;32.62;96972.31;4956532;28;20849;-66
2023/06/20 09:33:06;;;;;;;1.50;1.50;;;;;;;30.37;33.01;96994.91;4952235;28;20070;-63
2023/06/20 09:35:33;;;;;;;1.70;1.70;;;;;;;28.75;33.55;96689.19;4960759;28;20057;-68
2023/06/20 09:38:04;;;;;;;1.40;1.40;;;;;;;30.50;31.78;96961.00;4948358;28;20055;-61
2023/06/20 09:40:31;;;;;;;1.80;1.80;;;;;;;30.45;32.35;96963.78;4945293;28;20055;-62
2023/06/20 09:42:58;;;;;;;1.52;1.52;;;;;;;30.59;32.46;96972.25;4947384;28;20382;-62
2023/06/20 09:45:25;;;;;;;1.48;1.48;;;;;;;30.69;33.26;96956.50;4950533;28;20055;-60
2023/06/20 09:47:55;;;;;;;1.92;1.92;;;;;;;30.74;34.45;96972.13;4962702;28;20047;-62
2023/06/20 09:50:24;;;;;;;1.90;1.90;;;;;;;30.26;34.12;96940.47;4945793;28;20143;-61
2023/06/20 09:52:53;;;;;;;2.00;2.00;;;;;;;30.40;33.73;96971.00;4952582;28;20038;-63
2023/06/20 09:55:23;;;;;;;1.88;1.88;;;;;;;30.17;35.78;96974.91;4964336;28;20309;-63
2023/06/20 09:57:53;;;;;;;1.40;1.40;;;;;;;29.95;37.21;96991.78;4962443;28;20086;-60
2023/06/20 10:00:23;;;;;;;1.80;1.80;;;;;;;29.66;37.96;96929.06;4964061;28;20058;-60
2023/06/20 10:02:52;;;;;;;1.77;1.77;;;;;;;29.89;34.81;96953.78;4964210;28;20435;-60
2023/06/20 10:05:21;;;;;;;1.80;1.80;;;;;;;29.84;35.42;96934.50;4964330;28;20495;-60
2023/06/20 10:07:49;;;;;;;1.73;1.73;;;;;;;30.16;37.55;96967.59;4964262;28;20065;-63
2023/06/20 10:10:17;;;;;;;1.60;1.60;;;;;;;29.88;37.98;96917.13;4964453;28;20055;-61
2023/06/20 10:12:46;;;;;;;1.52;1.52;;;;;;;30.52;36.11;96969.84;4964080;28;20078;-63
2023/06/20 10:15:16;;;;;;;1.75;1.75;;;;;;;30.43;35.39;96957.81;4964290;28;20109;-59
2023/06/20 10:17:48;;;;;;;1.60;1.60;;;;;;;30.57;36.76;96969.09;4966660;28;20117;-60
2023/06/20 10:20:34;;;;;;;1.70;1.70;;;;;;;30.41;36.59;96972.59;4967812;28;20481;-62
2023/06/20 10:23:05;;;;;;;1.85;1.85;;;;;;;30.98;36.88;96976.25;4965940;28;20050;-63
2023/06/20 10:25:33;;;;;;;1.77;1.77;;;;;;;30.49;36.32;96887.91;4973324;28;20055;-63
2023/06/20 10:28:05;;;;;;;1.73;1.73;;;;;;;31.67;36.46;96951.25;4947517;28;20074;-60
2023/06/20 10:30:49;;;;;;;1.90;1.90;;;;;;;30.92;36.80;96943.97;4948863;28;20578;-60
2023/06/20 10:33:23;;;;;;;1.48;1.48;;;;;;;31.47;36.88;96931.38;4948482;28;20063;-63
2023/06/20 10:35:57;;;;;;;1.60;1.60;;;;;;;31.93;32.57;96934.75;4948290;28;20463;-63
2023/06/20 10:38:28;;;;;;;1.80;1.80;;;;;;;31.40;32.28;96914.66;4978766;28;20794;-63
2023/06/20 10:41:24;;;;;;;2.00;2.00;;;;;;;31.39;34.64;96947.44;4947618;28;20066;-59
2023/06/20 10:43:54;;;;;;;1.70;1.70;;;;;;;31.13;34.75;96958.16;4946380;29;20447;-64
2023/06/20 10:46:27;;;;;;;1.77;1.77;;;;;;;30.87;34.52;96924.66;4948323;28;20058;-63
2023/06/20 10:48:54;;;;;;;2.00;2.00;;;;;;;31.31;35.61;96969.25;4948054;28;20366;-61
2023/06/20 10:51:21;;;;;;;1.67;1.67;;;;;;;29.98;38.76;96965.06;4948406;28;20110;-63
2023/06/20 10:53:47;;;;;;;1.88;1.88;;;;;;;30.41;38.84;96949.72;4948329;28;20456;-64
2023/06/20 10:56:28;;;;;;;1.75;1.75;;;;;;;30.74;38.45;96961.47;4947797;28;20434;-63
2023/06/20 10:58:55;;;;;;;1.90;1.90;;;;;;;30.83;37.38;96958.47;4948092;28;20055;-65
2023/06/20 11:01:26;;;;;;;1.90;1.90;;;;;;;30.70;36.29;96915.16;4978440;28;20047;-63
2023/06/20 11:03:53;;;;;;;1.60;1.60;;;;;;;30.42;37.31;96962.72;4978682;28;20142;-63
2023/06/20 11:06:20;;;;;;;1.80;1.80;;;;;;;30.14;37.05;96958.75;4977942;28;20062;-64
2023/06/20 11:08:47;;;;;;;1.55;1.55;;;;;;;30.03;37.91;96970.06;4947388;28;20138;-62
2023/06/20 11:11:13;;;;;;;1.80;1.80;;;;;;;29.70;38.90;96974.56;4975738;28;20137;-63
2023/06/20 11:13:43;;;;;;;1.70;1.70;;;;;;;29.40;38.21;96977.47;4946753;28;20051;-60
2023/06/20 11:16:18;;;;;;;1.73;1.73;;;;;;;29.28;40.92;96977.81;4960863;28;20048;-63
2023/06/20 11:18:45;;;;;;;1.58;1.58;;;;;;;28.48;45.86;96966.88;4946666;28;20066;-63
2023/06/20 11:21:15;;;;;;;1.70;1.70;;;;;;;27.53;47.51;96983.28;4944988;29;20063;-63
2023/06/20 11:23:42;;;;;;;1.60;1.60;;;;;;;26.91;48.07;96985.16;4960322;28;20265;-63
2023/06/20 11:26:09;;;;;;;1.40;1.40;;;;;;;27.21;48.34;96984.06;4976707;28;20057;-64
2023/06/20 11:28:36;;;;;;;1.70;1.70;;;;;;;28.12;46.04;96959.44;4945907;28;20051;-64
2023/06/20 11:31:13;;;;;;;1.52;1.52;;;;;;;28.22;45.51;96868.19;4947453;28;20047;-59
2023/06/20 11:33:41;;;;;;;1.67;1.67;;;;;;;29.03;45.21;96941.34;4941110;28;20165;-60
2023/06/20 11:36:08;;;;;;;1.50;1.50;;;;;;;28.42;46.85;96968.03;4928199;29;20567;-63
2023/06/20 11:38:39;;;;;;;1.60;1.60;;;;;;;28.07;47.51;96951.56;4928436;29;20058;-64
2023/06/20 11:41:08;;;;;;;1.40;1.40;;;;;;;27.92;47.48;96930.81;4927824;29;20436;-63